createdAt,value
2019-04-23T00:00:38.035Z,45.00
2019-04-23T00:02:58.797Z,45.30
2019-04-23T00:10:51.459Z,45.80
2019-04-23T00:12:59.246Z,45.90
2019-04-23T00:15:54.739Z,46.30
2019-04-23T00:18:22.274Z,46.30
2019-04-23T00:20:47.927Z,46.50
2019-04-23T00:23:18.929Z,46.60
2019-04-23T00:28:28.280Z,47.30
2019-04-23T00:31:15.474Z,47.40
2019-04-23T00:33:27.046Z,47.50
2019-04-23T00:36:13.623Z,47.80
2019-04-23T00:41:09.301Z,48.40
2019-04-23T00:43:30.342Z,48.80
2019-04-23T00:48:35.267Z,49.30
2019-04-23T00:53:38.864Z,49.80
2019-04-23T00:56:28.051Z,49.90
2019-04-23T01:01:11.136Z,50.60
2019-04-23T01:03:27.456Z,50.70
2019-04-23T01:06:00.611Z,50.90
2019-04-23T01:08:30.236Z,51.20
2019-04-23T01:11:21.235Z,51.50
2019-04-23T01:16:09.969Z,52.20
2019-04-23T01:18:51.515Z,52.40
2019-04-23T01:21:03.553Z,52.80
2019-04-23T01:24:17.750Z,53.10
2019-04-23T01:27:39.064Z,53.40
2019-04-23T01:29:57.904Z,53.80
2019-04-23T01:32:27.056Z,54.20
2019-04-23T01:35:06.592Z,54.60
2019-04-23T01:37:30.088Z,54.80
2019-04-23T01:39:57.531Z,55.20
2019-04-23T01:42:39.377Z,55.70
2019-04-23T01:45:06.956Z,55.60
2019-04-23T01:47:33.610Z,56.10
2019-04-23T01:50:08.293Z,56.40
2019-04-23T01:55:03.002Z,57.10
2019-04-23T01:57:34.811Z,57.50
2019-04-23T02:00:14.100Z,57.80
2019-04-23T02:02:40.863Z,58.10
2019-04-23T02:05:09.938Z,58.50
2019-04-23T02:07:39.620Z,58.90
2019-04-23T02:10:12.771Z,59.20
2019-04-23T02:12:38.847Z,59.60
2019-04-23T02:15:10.227Z,60.00
2019-04-23T02:17:38.723Z,60.40
2019-04-23T02:20:13.578Z,60.80
2019-04-23T02:25:39.639Z,61.50
2019-04-23T02:28:01.881Z,61.60
2019-04-23T02:30:54.930Z,62.20
2019-04-23T02:38:27.305Z,63.10
2019-04-23T02:40:49.527Z,63.20
2019-04-23T02:45:39.850Z,63.40
2019-04-23T02:48:11.132Z,63.70
2019-04-23T02:50:39.782Z,63.90
2019-04-23T02:53:31.722Z,64.30
2019-04-23T02:58:14.456Z,64.10
2019-04-23T03:00:55.279Z,64.40
2019-04-23T03:03:06.131Z,64.50
2019-04-23T03:08:12.776Z,64.60
2019-04-23T03:10:42.768Z,64.50
2019-04-23T03:13:21.283Z,64.80
2019-04-23T03:16:00.865Z,64.90
2019-04-23T03:21:33.826Z,64.40
2019-04-23T03:27:08.072Z,64.20
2019-04-23T03:42:17.186Z,64.80
2019-04-23T03:47:30.589Z,65.10
2019-04-23T03:49:55.374Z,65.60
2019-04-23T03:52:31.349Z,66.10
2019-04-23T03:54:58.717Z,66.30
2019-04-23T03:59:56.828Z,66.90
2019-04-23T04:04:45.200Z,66.80
2019-04-23T04:15:01.382Z,66.80
2019-04-23T04:19:56.305Z,66.70
2019-04-23T04:32:17.523Z,66.60
2019-04-23T04:40:18.127Z,67.40
2019-04-23T04:42:25.220Z,66.90
2019-04-23T04:47:36.193Z,66.80
2019-04-23T04:50:00.214Z,66.90
2019-04-23T04:52:44.611Z,67.00
2019-04-23T04:55:05.257Z,67.70
2019-04-23T04:57:35.782Z,67.10
2019-04-23T05:00:20.257Z,67.20
2019-04-23T05:07:35.953Z,67.00
2019-04-23T05:10:27.599Z,67.40
2019-04-23T05:12:52.832Z,67.20
2019-04-23T05:14:56.872Z,67.10
2019-04-23T05:18:19.618Z,66.90
2019-04-23T05:20:37.313Z,67.10
2019-04-23T05:23:18.381Z,67.10
2019-04-23T05:25:34.652Z,66.70
2019-04-23T05:28:07.943Z,66.80
2019-04-23T05:30:38.392Z,66.40
2019-04-23T05:36:02.250Z,66.30
2019-04-23T05:43:08.108Z,66.10
2019-04-23T05:45:35.046Z,66.00
2019-04-23T05:53:21.640Z,65.80
2019-04-23T05:55:44.575Z,66.50
2019-04-23T05:58:13.205Z,65.60
2019-04-23T06:05:49.307Z,65.00
2019-04-23T06:08:12.054Z,65.00
2019-04-23T06:10:53.913Z,64.70
2019-04-23T06:13:13.248Z,64.70
2019-04-23T06:15:59.759Z,64.70
2019-04-23T06:18:17.141Z,65.00
2019-04-23T06:20:48.810Z,65.20
2019-04-23T06:23:26.834Z,65.30
2019-04-23T06:25:57.175Z,65.00
2019-04-23T06:28:13.786Z,65.30
2019-04-23T06:30:47.048Z,65.20
2019-04-23T06:33:22.780Z,65.40
2019-04-23T06:35:46.920Z,65.00
2019-04-23T06:40:48.733Z,65.10
2019-04-23T06:43:24.305Z,65.60
2019-04-23T06:45:52.330Z,65.10
2019-04-23T06:50:59.588Z,65.20
2019-04-23T06:53:21.371Z,65.20
2019-04-23T06:55:56.365Z,65.30
2019-04-23T07:03:36.061Z,66.00
2019-04-23T07:06:17.285Z,65.50
2019-04-23T07:08:44.377Z,65.90
2019-04-23T07:11:18.810Z,65.60
2019-04-23T07:13:47.677Z,65.50
2019-04-23T07:16:03.188Z,65.50
2019-04-23T07:18:36.153Z,65.40
2019-04-23T07:21:13.343Z,65.80
2019-04-23T07:23:45.432Z,65.60
2019-04-23T07:26:24.351Z,65.10
2019-04-23T07:28:43.761Z,65.10
2019-04-23T07:31:14.151Z,65.20
2019-04-23T07:33:44.424Z,65.00
2019-04-23T07:36:08.614Z,65.00
2019-04-23T07:39:01.617Z,64.80
2019-04-23T07:41:49.817Z,64.80
2019-04-23T07:47:36.358Z,64.10
2019-04-23T07:50:06.250Z,64.70
2019-04-23T07:52:33.449Z,64.00
2019-04-23T07:55:02.182Z,64.10
2019-04-23T07:59:56.157Z,63.20
2019-04-23T08:02:27.501Z,62.50
2019-04-23T08:05:09.731Z,63.00
2019-04-23T08:07:26.839Z,62.90
2019-04-23T08:12:32.025Z,62.50
2019-04-23T08:15:00.014Z,62.40
2019-04-23T08:17:26.231Z,61.90
2019-04-23T08:20:03.034Z,61.90
2019-04-23T08:22:35.017Z,62.50
2019-04-23T08:25:06.753Z,61.90
2019-04-23T08:27:42.074Z,62.20
2019-04-23T08:30:10.998Z,62.00
2019-04-23T08:32:37.023Z,62.10
2019-04-23T08:35:27.061Z,61.60
2019-04-23T08:40:15.174Z,62.60
2019-04-23T08:43:00.933Z,61.50
2019-04-23T08:51:07.422Z,60.50
2019-04-23T08:55:50.137Z,60.10
2019-04-23T08:58:23.801Z,60.30
2019-04-23T09:00:52.656Z,59.70
2019-04-23T09:03:24.826Z,59.30
2019-04-23T09:08:53.055Z,59.00
2019-04-23T09:11:16.381Z,58.90
2019-04-23T09:16:11.998Z,59.70
2019-04-23T09:18:53.005Z,59.90
2019-04-23T09:21:10.553Z,59.20
2019-04-23T09:26:21.429Z,59.30
2019-04-23T09:31:43.556Z,59.10
2019-04-23T09:34:04.956Z,59.60
2019-04-23T09:36:40.554Z,58.90
2019-04-23T09:39:34.789Z,58.40
2019-04-23T09:42:38.904Z,58.70
2019-04-23T09:45:29.645Z,58.60
2019-04-23T09:47:58.513Z,57.30
2019-04-23T09:50:29.557Z,57.90
2019-04-23T09:55:35.121Z,56.90
2019-04-23T09:58:03.164Z,57.00
2019-04-23T10:02:53.715Z,57.00
2019-04-23T10:05:18.352Z,57.30
2019-04-23T10:07:47.616Z,57.40
2019-04-23T10:10:07.981Z,57.70
2019-04-23T10:12:37.695Z,57.60
2019-04-23T10:15:13.832Z,56.70
2019-04-23T10:17:38.063Z,56.00
2019-04-23T10:20:08.576Z,56.60
2019-04-23T10:22:39.403Z,55.30
2019-04-23T10:25:08.858Z,54.90
2019-04-23T10:27:39.062Z,55.10
2019-04-23T10:30:08.235Z,55.30
2019-04-23T10:32:37.761Z,55.60
2019-04-23T10:35:20.966Z,55.80
2019-04-23T10:37:46.746Z,55.80
2019-04-23T10:40:14.245Z,55.30
2019-04-23T10:42:42.963Z,54.20
2019-04-23T10:45:36.919Z,54.20
2019-04-23T10:49:11.112Z,54.90
2019-04-23T10:54:23.975Z,53.70
2019-04-23T10:56:52.446Z,54.10
2019-04-23T10:59:29.497Z,53.20
2019-04-23T11:02:15.770Z,53.70
2019-04-23T11:07:25.265Z,53.90
2019-04-23T11:12:42.325Z,53.80
2019-04-23T11:15:09.129Z,53.40
2019-04-23T11:17:38.728Z,53.60
2019-04-23T11:20:07.450Z,53.50
2019-04-23T11:22:42.619Z,53.80
2019-04-23T11:30:10.781Z,53.70
2019-04-23T11:32:47.057Z,54.00
2019-04-23T11:35:18.191Z,54.10
2019-04-23T11:37:43.857Z,53.80
2019-04-23T11:42:38.886Z,55.20
2019-04-23T11:45:06.959Z,55.30
2019-04-23T11:48:05.109Z,55.70
2019-04-23T11:52:44.658Z,56.40
2019-04-23T11:55:17.570Z,55.90
2019-04-23T11:57:40.744Z,56.50
2019-04-23T12:00:07.586Z,55.50
2019-04-23T12:02:53.954Z,55.20
2019-04-23T12:08:33.366Z,54.60
2019-04-23T12:11:35.688Z,53.80
2019-04-23T12:13:47.342Z,54.20
2019-04-23T12:16:10.596Z,54.20
2019-04-23T12:18:38.700Z,53.30
2019-04-23T12:21:28.330Z,53.90
2019-04-23T12:26:49.264Z,52.70
2019-04-23T12:29:23.418Z,52.50
2019-04-23T12:32:15.592Z,52.00
2019-04-23T12:34:47.502Z,52.20
2019-04-23T12:37:17.132Z,52.90
2019-04-23T12:39:43.383Z,52.90
2019-04-23T12:42:34.473Z,52.40
2019-04-23T12:44:45.699Z,51.80
2019-04-23T12:47:25.452Z,53.40
2019-04-23T12:52:22.417Z,51.90
2019-04-23T12:54:59.069Z,51.30
2019-04-23T12:59:47.752Z,50.80
2019-04-23T13:04:48.885Z,51.80
2019-04-23T13:07:17.371Z,51.60
2019-04-23T13:09:54.084Z,51.30
2019-04-23T13:12:32.820Z,50.70
2019-04-23T13:14:49.652Z,51.70
2019-04-23T13:17:31.289Z,51.30
2019-04-23T13:19:53.641Z,51.30
2019-04-23T13:22:23.913Z,51.50
2019-04-23T13:25:13.285Z,52.20
2019-04-23T13:35:28.006Z,51.60
2019-04-23T13:37:54.529Z,51.70
2019-04-23T13:40:17.581Z,52.20
2019-04-23T13:43:14.413Z,51.40
2019-04-23T13:48:06.171Z,52.10
2019-04-23T13:50:43.284Z,52.70
2019-04-23T13:55:40.893Z,53.00
2019-04-23T14:01:00.690Z,52.60
2019-04-23T14:03:09.655Z,52.80
2019-04-23T14:06:04.897Z,53.30
2019-04-23T14:08:41.648Z,53.80
2019-04-23T14:10:52.109Z,53.80
2019-04-23T14:16:03.607Z,51.80
2019-04-23T14:18:52.164Z,52.70
2019-04-23T14:21:08.652Z,51.60
2019-04-23T14:24:00.966Z,51.00
2019-04-23T14:28:35.497Z,51.30
2019-04-23T14:31:04.717Z,51.20
2019-04-23T14:38:40.326Z,50.10
2019-04-23T14:41:16.501Z,50.40
2019-04-23T14:43:45.384Z,49.70
2019-04-23T14:48:46.434Z,49.80
2019-04-23T14:51:24.167Z,49.70
2019-04-23T14:53:40.608Z,48.50
2019-04-23T14:58:53.747Z,49.60
2019-04-23T15:06:20.138Z,50.80
2019-04-23T15:08:50.423Z,51.30
2019-04-23T15:13:44.780Z,51.90
2019-04-23T15:16:22.674Z,51.90
2019-04-23T15:19:13.019Z,51.40
2019-04-23T15:21:47.229Z,51.60
2019-04-23T15:28:43.916Z,50.70
2019-04-23T15:31:41.980Z,51.10
2019-04-23T15:39:26.988Z,51.90
2019-04-23T15:41:43.943Z,50.90
2019-04-23T15:44:08.737Z,50.90
2019-04-23T15:46:39.532Z,50.60
2019-04-23T15:51:44.771Z,51.00
2019-04-23T15:54:13.707Z,51.60
2019-04-23T15:56:40.991Z,52.00
2019-04-23T15:59:24.651Z,52.50
2019-04-23T16:03:43.967Z,51.50
2019-04-23T16:06:14.212Z,51.60
2019-04-23T16:16:47.812Z,49.60
2019-04-23T16:19:28.944Z,48.90
2019-04-23T16:24:21.598Z,50.00
2019-04-23T16:27:07.230Z,49.40
2019-04-23T16:32:08.386Z,49.50
2019-04-23T16:34:50.688Z,49.40
2019-04-23T16:37:26.557Z,49.30
2019-04-23T16:40:01.484Z,49.60
2019-04-23T16:42:30.072Z,49.80
2019-04-23T16:45:06.058Z,50.00
2019-04-23T16:52:26.441Z,51.00
2019-04-23T16:55:01.253Z,51.20
2019-04-23T16:57:36.023Z,51.30
2019-04-23T17:02:24.756Z,52.10
2019-04-23T17:05:02.322Z,51.80
2019-04-23T17:07:24.023Z,52.30
2019-04-23T17:12:21.181Z,53.00
2019-04-23T17:15:03.281Z,52.90
2019-04-23T17:17:27.320Z,53.30
2019-04-23T17:20:10.272Z,53.70
2019-04-23T17:22:33.871Z,53.50
2019-04-23T17:27:37.423Z,54.10
2019-04-23T17:30:06.790Z,54.80
2019-04-23T17:32:49.885Z,54.80
2019-04-23T17:35:45.523Z,55.00
2019-04-23T17:37:57.110Z,55.30
2019-04-23T17:43:01.535Z,55.90
2019-04-23T17:45:51.147Z,56.20
2019-04-23T17:50:53.146Z,56.90
2019-04-23T17:53:22.290Z,57.40
2019-04-23T17:56:20.195Z,57.90
2019-04-23T18:06:27.988Z,59.10
2019-04-23T18:08:53.680Z,59.50
2019-04-23T18:13:50.181Z,60.20
2019-04-23T18:16:30.717Z,60.60
2019-04-23T18:19:08.140Z,61.00
2019-04-23T18:33:31.890Z,63.00
2019-04-23T18:35:19.582Z,63.30
2019-04-23T18:37:46.509Z,63.90
2019-04-23T18:40:14.536Z,64.00
2019-04-23T18:42:54.204Z,65.00
2019-04-23T18:45:25.144Z,64.60
2019-04-23T18:50:24.899Z,65.00
2019-04-23T18:58:10.538Z,65.80
2019-04-23T19:00:53.583Z,66.00
2019-04-23T19:03:48.522Z,66.30
2019-04-23T19:06:25.678Z,66.90
2019-04-23T19:09:02.875Z,66.50
2019-04-23T19:14:14.689Z,66.80
2019-04-23T19:16:50.872Z,66.90
2019-04-23T19:19:09.569Z,67.10
2019-04-23T19:24:03.575Z,67.50
2019-04-23T19:29:11.710Z,67.60
2019-04-23T19:34:35.317Z,68.00
2019-04-23T19:39:29.469Z,68.30
2019-04-23T19:47:19.205Z,68.90
2019-04-23T19:49:33.394Z,69.10
2019-04-23T19:51:59.680Z,69.10
2019-04-23T19:57:19.765Z,69.30
2019-04-23T20:02:07.753Z,69.80
2019-04-23T20:04:42.852Z,69.80
2019-04-23T20:09:43.814Z,70.20
2019-04-23T20:12:42.888Z,70.10
2019-04-23T20:17:47.160Z,70.60
2019-04-23T20:20:08.430Z,70.90
2019-04-23T20:22:48.521Z,70.80
2019-04-23T20:25:45.913Z,71.20
2019-04-23T20:27:47.930Z,71.10
2019-04-23T20:30:58.909Z,71.30
2019-04-23T20:35:56.365Z,71.40
2019-04-23T20:43:49.015Z,71.80
2019-04-23T20:46:14.800Z,72.10
2019-04-23T20:48:48.187Z,72.20
2019-04-23T20:51:09.191Z,72.40
2019-04-23T20:53:48.184Z,72.50
2019-04-23T20:56:18.323Z,72.50
2019-04-23T20:58:54.971Z,72.80
2019-04-23T21:01:46.763Z,72.90
2019-04-23T21:03:55.192Z,73.00
2019-04-23T21:06:28.428Z,73.00
2019-04-23T21:11:36.646Z,73.50
2019-04-23T21:16:41.125Z,73.70
2019-04-23T21:18:55.039Z,73.60
2019-04-23T21:21:33.065Z,73.80
2019-04-23T21:24:00.021Z,73.80
2019-04-23T21:26:37.019Z,73.80
2019-04-23T21:28:54.354Z,73.90
2019-04-23T21:31:53.897Z,74.00
2019-04-23T21:36:44.396Z,74.20
2019-04-23T21:42:07.501Z,74.50
2019-04-23T21:44:18.968Z,74.60
2019-04-23T21:46:56.538Z,74.70
2019-04-23T21:54:23.055Z,75.20
2019-04-23T21:56:55.298Z,75.40
2019-04-23T21:59:23.131Z,75.40
2019-04-23T22:01:54.187Z,75.60
2019-04-23T22:06:52.733Z,76.00
2019-04-23T22:09:31.509Z,76.00
2019-04-23T22:17:02.907Z,76.60
2019-04-23T22:19:45.055Z,76.70
2019-04-23T22:21:55.597Z,76.90
2019-04-23T22:24:26.531Z,77.00
2019-04-23T22:26:58.080Z,77.10
2019-04-23T22:29:37.935Z,77.40
2019-04-23T22:32:14.360Z,77.60
2019-04-23T22:39:31.783Z,78.30
2019-04-23T22:44:39.197Z,78.50
2019-04-23T22:47:15.538Z,78.50
2019-04-23T22:49:47.425Z,78.70
2019-04-23T22:52:16.595Z,78.80
2019-04-23T22:54:51.069Z,78.90
2019-04-23T22:57:16.892Z,78.80
2019-04-23T22:59:57.340Z,79.20
2019-04-23T23:02:34.393Z,79.30
2019-04-23T23:05:09.988Z,79.50
2019-04-23T23:07:43.922Z,79.40
2019-04-23T23:10:08.773Z,79.60
2019-04-23T23:12:43.691Z,79.60
2019-04-23T23:15:24.539Z,79.90
2019-04-23T23:17:58.368Z,80.10
2019-04-23T23:25:24.706Z,80.50
2019-04-23T23:27:58.955Z,80.60
2019-04-23T23:30:26.885Z,80.70
2019-04-23T23:33:00.263Z,81.00
2019-04-23T23:37:59.219Z,81.20
2019-04-23T23:40:30.347Z,81.20
2019-04-23T23:43:14.600Z,81.20
2019-04-23T23:45:25.294Z,81.10
2019-04-23T23:48:01.810Z,81.30
2019-04-23T23:50:35.391Z,81.30
2019-04-23T23:53:04.285Z,81.20
2019-04-23T23:55:30.080Z,81.40
2019-04-23T23:58:10.807Z,81.50
